Time;durP1;ratioP1;P1;durP2;ratioP2;P2;SDS_P1;SDS_P2;PMS_P1;PMS_P2;Temp;Humidity;BMP_temperature;BMP_pressure;BME280_temperature;BME280_humidity;BME280_pressure;Samples;Min_cycle;Max_cycle;Signal;HPM_P1;HPM_P2
2024/02/02 00:00:18;;;;;;;1.60;1.30;;;21.10;54.20;;;;;;5093151;28;20190;-70
2024/02/02 00:02:44;;;;;;;1.47;1.30;;;21.10;53.80;;;;;;5092972;28;20648;-70
2024/02/02 00:05:10;;;;;;;1.47;1.20;;;21.10;53.80;;;;;;5093365;28;20406;-71
2024/02/02 00:07:35;;;;;;;1.20;1.10;;;21.10;53.80;;;;;;5093015;28;20200;-71
2024/02/02 00:10:01;;;;;;;1.20;1.00;;;21.10;53.80;;;;;;5093374;28;20241;-70
2024/02/02 00:12:27;;;;;;;2.13;1.00;;;21.10;53.90;;;;;;5093072;28;20170;-70
2024/02/02 00:14:53;;;;;;;1.73;1.23;;;21.10;53.80;;;;;;5092935;28;20422;-70
2024/02/02 00:17:19;;;;;;;1.53;1.10;;;21.10;53.90;;;;;;5092657;28;20232;-71
2024/02/02 00:19:45;;;;;;;1.73;1.27;;;21.10;53.90;;;;;;5074188;28;20204;-70
2024/02/02 00:22:11;;;;;;;1.53;1.27;;;21.10;53.80;;;;;;5092775;28;20924;-70
2024/02/02 00:24:37;;;;;;;1.57;1.30;;;21.10;53.90;;;;;;5092721;28;20395;-71
2024/02/02 00:27:03;;;;;;;1.43;1.33;;;21.10;53.90;;;;;;5092296;28;20215;-70
2024/02/02 00:29:29;;;;;;;1.37;1.20;;;21.10;53.80;;;;;;5092045;28;20551;-70
2024/02/02 00:31:55;;;;;;;1.37;1.20;;;21.10;53.80;;;;;;5074580;28;20465;-69
2024/02/02 00:34:20;;;;;;;1.27;1.17;;;21.10;53.90;;;;;;5092495;28;20180;-70
2024/02/02 00:36:46;;;;;;;1.90;1.43;;;21.10;53.90;;;;;;5092393;28;20169;-69
2024/02/02 00:39:12;;;;;;;1.60;1.20;;;21.10;53.90;;;;;;5092244;28;20284;-70
2024/02/02 00:41:37;;;;;;;1.67;1.30;;;21.10;53.90;;;;;;5092409;28;20272;-70
2024/02/02 00:44:03;;;;;;;2.60;1.57;;;21.10;53.90;;;;;;5092238;28;20172;-70
2024/02/02 00:46:29;;;;;;;1.33;1.13;;;21.10;53.90;;;;;;5092300;28;20671;-71
2024/02/02 00:48:55;;;;;;;1.50;1.10;;;21.10;53.90;;;;;;5092151;28;20499;-70
2024/02/02 00:51:20;;;;;;;1.10;1.00;;;21.10;53.90;;;;;;5092004;28;20240;-69
2024/02/02 00:53:46;;;;;;;1.13;1.00;;;21.10;53.90;;;;;;5092049;28;20177;-71
2024/02/02 00:56:11;;;;;;;1.33;1.10;;;21.10;53.90;;;;;;5092035;28;20196;-70
2024/02/02 00:58:37;;;;;;;2.17;1.10;;;21.10;53.90;;;;;;5091950;28;20660;-70
2024/02/02 01:01:03;;;;;;;1.50;1.20;;;21.10;53.90;;;;;;5091935;28;20185;-70
2024/02/02 01:03:28;;;;;;;1.37;1.20;;;21.10;53.90;;;;;;5073603;28;20176;-70
2024/02/02 01:05:54;;;;;;;1.90;1.70;;;21.10;53.90;;;;;;5092085;28;20272;-70
2024/02/02 01:08:20;;;;;;;1.00;0.90;;;21.10;53.90;;;;;;5091694;28;20174;-70
2024/02/02 01:10:46;;;;;;;1.10;1.00;;;21.10;53.90;;;;;;5091746;28;20272;-70
2024/02/02 01:13:12;;;;;;;1.37;1.27;;;21.10;53.90;;;;;;5091683;28;20223;-70
2024/02/02 01:15:37;;;;;;;1.27;1.10;;;21.00;53.80;;;;;;5091814;28;20189;-70
2024/02/02 01:18:07;;;;;;;1.73;1.20;;;21.10;53.90;;;;;;5091439;28;20586;-70
2024/02/02 01:20:33;;;;;;;1.20;1.00;;;21.00;53.80;;;;;;5091449;28;20289;-70
2024/02/02 01:22:59;;;;;;;1.30;1.20;;;21.00;53.80;;;;;;5091478;28;20499;-71
2024/02/02 01:25:29;;;;;;;1.10;0.90;;;21.10;53.90;;;;;;5091464;28;20862;-70
2024/02/02 01:27:55;;;;;;;1.20;0.90;;;21.10;53.90;;;;;;5091456;28;20178;-70
2024/02/02 01:30:20;;;;;;;1.40;1.07;;;21.00;53.80;;;;;;5091279;28;20782;-70
2024/02/02 01:32:46;;;;;;;1.20;1.10;;;21.00;53.80;;;;;;5091261;28;20223;-70
2024/02/02 01:35:12;;;;;;;1.27;1.10;;;21.00;53.80;;;;;;5091155;28;20174;-70
2024/02/02 01:37:38;;;;;;;1.50;1.00;;;21.00;53.80;;;;;;5091109;28;20185;-70
2024/02/02 01:40:04;;;;;;;1.53;1.03;;;21.00;53.80;;;;;;5091181;28;21015;-71
2024/02/02 01:42:30;;;;;;;1.40;1.30;;;21.00;53.80;;;;;;5091114;28;20178;-70
2024/02/02 01:44:55;;;;;;;1.60;1.23;;;21.00;53.80;;;;;;5091015;28;20400;-70
2024/02/02 01:47:21;;;;;;;1.20;1.00;;;21.00;53.80;;;;;;5091210;28;20212;-71
2024/02/02 01:49:48;;;;;;;1.33;1.10;;;21.00;53.80;;;;;;5090797;28;20180;-69
2024/02/02 01:52:14;;;;;;;1.40;1.17;;;21.00;53.80;;;;;;5090928;28;20548;-70
2024/02/02 01:54:39;;;;;;;1.13;1.00;;;21.00;53.80;;;;;;5090816;28;20408;-69
2024/02/02 01:57:05;;;;;;;1.60;1.50;;;21.00;53.80;;;;;;5090975;28;20220;-71
2024/02/02 01:59:31;;;;;;;1.30;1.03;;;21.00;53.80;;;;;;5090659;28;20201;-70
2024/02/02 02:01:57;;;;;;;1.17;1.00;;;21.00;53.80;;;;;;5090723;28;20193;-71
2024/02/02 02:04:23;;;;;;;1.60;1.20;;;21.00;53.80;;;;;;5091103;28;20417;-70
2024/02/02 02:06:49;;;;;;;1.23;1.00;;;21.00;54.40;;;;;;5090915;28;20177;-70
2024/02/02 02:09:14;;;;;;;1.47;1.20;;;21.00;53.80;;;;;;5090637;28;20469;-68
2024/02/02 02:11:41;;;;;;;2.73;2.13;;;21.00;53.80;;;;;;5090577;28;20212;-71
2024/02/02 02:14:07;;;;;;;1.37;1.10;;;21.00;53.80;;;;;;5090630;28;20174;-70
2024/02/02 02:16:33;;;;;;;1.50;1.03;;;21.00;53.80;;;;;;5090430;28;20431;-71
2024/02/02 02:19:00;;;;;;;1.40;1.30;;;21.00;53.80;;;;;;5090467;28;20530;-70
2024/02/02 02:21:28;;;;;;;1.20;1.10;;;21.00;53.90;;;;;;5090536;28;20336;-70
2024/02/02 02:23:54;;;;;;;1.30;1.10;;;21.00;53.80;;;;;;5090459;28;20411;-71
2024/02/02 02:26:21;;;;;;;1.10;1.00;;;21.00;53.80;;;;;;5090262;28;20937;-71
2024/02/02 02:28:47;;;;;;;1.17;1.07;;;21.00;53.80;;;;;;5086183;28;20433;-71
2024/02/02 02:31:14;;;;;;;1.60;1.07;;;21.00;53.80;;;;;;5090207;28;20427;-70
2024/02/02 02:33:41;;;;;;;2.47;1.27;;;21.00;53.80;;;;;;5090258;28;20461;-70
2024/02/02 02:36:07;;;;;;;1.13;1.03;;;21.00;53.80;;;;;;5090285;28;20458;-71
2024/02/02 02:38:34;;;;;;;1.27;1.17;;;21.00;53.90;;;;;;5090221;28;20478;-70
2024/02/02 02:41:00;;;;;;;1.30;1.00;;;21.00;53.80;;;;;;5090115;28;20992;-70
2024/02/02 02:43:27;;;;;;;1.20;1.00;;;21.00;53.80;;;;;;5083998;28;20493;-70
2024/02/02 02:45:54;;;;;;;1.17;0.90;;;21.00;53.80;;;;;;5070287;28;20496;-70
2024/02/02 02:48:19;;;;;;;1.30;1.00;;;21.00;53.80;;;;;;5069939;28;20507;-70
2024/02/02 02:50:45;;;;;;;1.10;1.00;;;21.00;53.80;;;;;;5070566;28;20523;-70
2024/02/02 02:53:11;;;;;;;1.77;1.20;;;21.00;53.80;;;;;;5074194;28;20280;-70
2024/02/02 02:55:36;;;;;;;1.30;1.10;;;20.90;53.80;;;;;;5055959;28;20182;-70
2024/02/02 02:58:02;;;;;;;1.40;1.20;;;20.90;53.80;;;;;;5073807;28;20205;-70
2024/02/02 03:00:29;;;;;;;1.27;1.10;;;20.90;53.80;;;;;;5073925;28;20731;-70
2024/02/02 03:02:55;;;;;;;1.53;1.10;;;20.90;53.80;;;;;;5073983;28;20166;-70
2024/02/02 03:05:21;;;;;;;1.20;0.90;;;20.90;53.80;;;;;;5073958;28;20416;-71
2024/02/02 03:07:46;;;;;;;1.10;0.93;;;20.90;53.80;;;;;;5074077;28;20773;-70
2024/02/02 03:10:13;;;;;;;1.73;1.10;;;20.90;53.80;;;;;;5073780;28;20194;-70
2024/02/02 03:12:38;;;;;;;1.50;1.00;;;20.90;53.80;;;;;;5074050;28;20186;-70
2024/02/02 03:15:04;;;;;;;1.40;1.10;;;20.90;53.80;;;;;;5073734;28;20907;-70
2024/02/02 03:17:30;;;;;;;1.70;1.20;;;20.90;53.80;;;;;;5073773;28;20599;-70
2024/02/02 03:19:56;;;;;;;1.20;1.10;;;20.90;53.80;;;;;;5073536;28;20458;-70
2024/02/02 03:22:21;;;;;;;1.60;1.20;;;21.00;53.90;;;;;;5074017;28;20763;-71
2024/02/02 03:24:47;;;;;;;1.00;0.90;;;20.90;53.80;;;;;;5073596;28;20174;-70
2024/02/02 03:27:13;;;;;;;1.10;0.90;;;20.90;53.80;;;;;;5055772;28;20181;-71
2024/02/02 03:29:38;;;;;;;2.43;1.30;;;20.90;53.80;;;;;;5073673;28;20182;-70
2024/02/02 03:32:04;;;;;;;1.57;1.40;;;20.90;54.40;;;;;;5073463;28;20689;-70
2024/02/02 03:34:30;;;;;;;1.70;1.20;;;20.90;53.80;;;;;;5073400;28;20174;-70
2024/02/02 03:36:55;;;;;;;1.30;1.20;;;20.90;53.80;;;;;;5055506;28;20178;-70
2024/02/02 03:39:21;;;;;;;1.40;1.20;;;20.90;53.80;;;;;;5073290;28;20201;-70
2024/02/02 03:41:46;;;;;;;1.20;1.10;;;20.90;53.80;;;;;;5073137;28;20663;-70
2024/02/02 03:44:12;;;;;;;1.30;1.07;;;20.90;53.80;;;;;;5073405;28;20179;-70
2024/02/02 03:46:38;;;;;;;1.70;1.27;;;20.90;53.80;;;;;;5073266;28;20178;-70
2024/02/02 03:49:03;;;;;;;1.63;1.10;;;20.90;53.80;;;;;;5073204;28;20290;-70
2024/02/02 03:51:29;;;;;;;1.43;1.10;;;20.90;53.80;;;;;;5073205;28;20190;-71
2024/02/02 03:53:55;;;;;;;1.40;1.20;;;20.90;53.80;;;;;;5073186;28;20201;-70
2024/02/02 03:56:20;;;;;;;1.37;1.07;;;20.90;54.40;;;;;;5073104;28;20174;-70
2024/02/02 03:58:46;;;;;;;1.77;1.17;;;20.90;53.80;;;;;;5073018;28;20213;-70
2024/02/02 04:01:11;;;;;;;1.40;0.90;;;20.90;53.80;;;;;;5072826;28;20281;-71
2024/02/02 04:03:37;;;;;;;1.40;1.30;;;20.90;53.80;;;;;;5071944;28;20273;-70
2024/02/02 04:06:03;;;;;;;1.23;1.10;;;20.90;53.80;;;;;;5073313;28;20613;-70
2024/02/02 04:08:29;;;;;;;1.37;1.10;;;20.90;53.80;;;;;;5073039;28;20174;-70
2024/02/02 04:10:55;;;;;;;1.20;1.00;;;20.90;53.80;;;;;;5073156;28;20560;-70
2024/02/02 04:13:20;;;;;;;1.40;1.17;;;20.90;53.80;;;;;;5072847;28;20473;-71
2024/02/02 04:15:47;;;;;;;1.57;1.17;;;21.00;53.90;;;;;;5054470;28;20251;-70
2024/02/02 04:18:12;;;;;;;1.73;1.00;;;20.90;53.80;;;;;;5054596;28;20206;-70
2024/02/02 04:20:38;;;;;;;1.90;1.13;;;20.90;53.80;;;;;;5072872;28;20443;-70
2024/02/02 04:23:04;;;;;;;1.60;1.13;;;20.90;53.80;;;;;;5072562;28;20174;-70
2024/02/02 04:25:29;;;;;;;1.70;1.13;;;20.90;53.80;;;;;;5054625;28;20174;-70
2024/02/02 04:27:55;;;;;;;1.30;1.00;;;20.90;53.80;;;;;;5072482;28;20257;-71
2024/02/02 04:30:20;;;;;;;1.30;1.10;;;20.90;53.80;;;;;;5072388;28;20190;-71
2024/02/02 04:32:46;;;;;;;1.23;1.03;;;20.90;53.80;;;;;;5072397;28;20174;-70
2024/02/02 04:35:12;;;;;;;1.30;1.10;;;20.90;53.80;;;;;;5072405;28;20178;-71
2024/02/02 04:37:39;;;;;;;1.30;1.00;;;20.90;53.80;;;;;;5072676;28;20202;-69
2024/02/02 04:40:06;;;;;;;1.23;0.90;;;20.90;53.80;;;;;;5072233;28;20222;-72
2024/02/02 04:42:32;;;;;;;1.10;1.00;;;20.90;53.80;;;;;;5072133;28;20401;-70
2024/02/02 04:44:57;;;;;;;1.10;1.00;;;20.90;53.80;;;;;;5072256;28;20407;-71
2024/02/02 04:47:23;;;;;;;1.53;1.00;;;20.90;53.80;;;;;;5072112;28;20527;-70
2024/02/02 04:49:49;;;;;;;1.30;1.07;;;21.00;53.80;;;;;;5054211;28;20251;-69
2024/02/02 04:52:15;;;;;;;1.37;1.10;;;20.90;53.80;;;;;;5072168;28;20522;-70
2024/02/02 04:54:41;;;;;;;1.10;1.00;;;20.90;53.80;;;;;;5071978;28;20906;-71
2024/02/02 04:57:06;;;;;;;1.47;1.17;;;21.00;53.90;;;;;;5071878;28;20174;-70
2024/02/02 04:59:33;;;;;;;2.20;1.23;;;21.00;53.80;;;;;;5071849;28;20240;-71
2024/02/02 05:01:58;;;;;;;1.30;1.13;;;20.90;53.80;;;;;;5071702;28;20194;-70
2024/02/02 05:04:24;;;;;;;1.17;1.00;;;20.90;53.80;;;;;;5071743;28;20420;-70
2024/02/02 05:06:50;;;;;;;1.10;1.00;;;20.90;53.80;;;;;;5071794;28;20171;-71
2024/02/02 05:09:16;;;;;;;1.60;1.20;;;20.90;53.80;;;;;;5071929;28;20415;-69
2024/02/02 05:11:41;;;;;;;1.00;0.90;;;21.00;53.90;;;;;;5071700;28;20232;-70
2024/02/02 05:14:07;;;;;;;1.10;0.90;;;20.90;53.80;;;;;;5071309;28;20231;-69
2024/02/02 05:16:33;;;;;;;1.20;1.10;;;20.90;53.80;;;;;;5071471;28;20581;-69
2024/02/02 05:18:58;;;;;;;1.40;1.20;;;20.90;53.80;;;;;;5071788;28;20209;-70
2024/02/02 05:21:24;;;;;;;1.30;1.20;;;21.00;53.90;;;;;;5071345;28;20190;-70
2024/02/02 05:23:50;;;;;;;1.40;1.10;;;21.00;53.90;;;;;;5071450;28;20253;-70
2024/02/02 05:26:17;;;;;;;1.53;1.03;;;21.00;53.90;;;;;;5071321;28;20181;-70
2024/02/02 05:28:43;;;;;;;1.13;1.03;;;21.00;53.90;;;;;;5071296;28;20178;-70
2024/02/02 05:31:09;;;;;;;1.47;1.20;;;21.00;53.90;;;;;;5071088;28;20429;-69
2024/02/02 05:33:34;;;;;;;1.13;1.00;;;21.00;53.90;;;;;;5071120;28;20416;-70
2024/02/02 05:36:01;;;;;;;1.50;1.00;;;21.00;53.80;;;;;;5071152;28;20263;-70
2024/02/02 05:38:26;;;;;;;1.40;1.20;;;21.00;53.80;;;;;;5070956;28;20187;-70
2024/02/02 05:40:52;;;;;;;1.67;1.20;;;21.00;53.80;;;;;;5071036;28;20429;-69
2024/02/02 05:43:18;;;;;;;1.20;1.00;;;21.00;53.80;;;;;;5071272;28;20275;-68
2024/02/02 05:45:43;;;;;;;1.87;1.10;;;21.00;53.80;;;;;;5070904;28;20174;-70
2024/02/02 05:48:09;;;;;;;1.10;1.00;;;21.00;53.80;;;;;;5070889;28;20174;-69
2024/02/02 05:50:35;;;;;;;1.60;0.90;;;21.00;53.80;;;;;;5070868;28;20225;-69
2024/02/02 05:53:01;;;;;;;1.47;1.37;;;21.00;53.80;;;;;;5070930;28;20178;-70
2024/02/02 05:55:26;;;;;;;1.13;1.00;;;21.00;53.80;;;;;;5070851;28;20240;-70
2024/02/02 05:57:52;;;;;;;1.50;1.10;;;21.00;53.80;;;;;;5070565;28;20465;-69
2024/02/02 06:00:18;;;;;;;1.13;0.93;;;21.00;53.80;;;;;;5052661;28;20234;-70
2024/02/02 06:02:45;;;;;;;1.57;1.27;;;21.00;53.80;;;;;;5070565;28;20216;-70
2024/02/02 06:05:10;;;;;;;1.30;1.00;;;21.00;53.80;;;;;;5070573;28;20438;-69
2024/02/02 06:07:37;;;;;;;1.10;0.93;;;21.00;53.80;;;;;;5070416;28;20405;-70
2024/02/02 06:10:03;;;;;;;1.27;0.90;;;21.00;53.80;;;;;;5070463;28;20198;-69
2024/02/02 06:12:29;;;;;;;1.13;0.97;;;21.00;53.80;;;;;;5070868;28;20413;-70
2024/02/02 06:14:55;;;;;;;1.30;1.00;;;21.00;53.80;;;;;;5070721;28;20515;-69
2024/02/02 06:17:20;;;;;;;1.90;1.50;;;21.00;53.80;;;;;;5070287;28;20239;-70
2024/02/02 06:19:46;;;;;;;1.20;1.00;;;21.00;53.80;;;;;;5070143;28;20194;-70
2024/02/02 06:22:12;;;;;;;1.87;1.20;;;21.00;53.80;;;;;;5070375;28;20170;-70
2024/02/02 06:24:37;;;;;;;1.60;1.10;;;21.00;53.80;;;;;;5052147;28;20178;-70
2024/02/02 06:27:03;;;;;;;1.00;0.90;;;21.00;53.80;;;;;;5051538;28;20564;-70
2024/02/02 06:29:32;;;;;;;1.27;1.10;;;21.00;53.80;;;;;;5070113;28;20170;-70
2024/02/02 06:31:58;;;;;;;1.23;1.10;;;21.10;53.90;;;;;;5070372;28;20198;-69
2024/02/02 06:34:23;;;;;;;1.30;1.20;;;21.10;53.90;;;;;;5070087;28;20431;-70
2024/02/02 06:36:49;;;;;;;1.20;1.10;;;21.10;53.90;;;;;;5070251;28;20307;-70
2024/02/02 06:39:15;;;;;;;1.20;1.10;;;21.10;53.80;;;;;;5051886;28;20197;-69
2024/02/02 06:41:40;;;;;;;1.67;1.27;;;21.10;53.80;;;;;;5070100;28;20195;-70
2024/02/02 06:44:06;;;;;;;1.10;1.00;;;21.10;53.80;;;;;;5051913;28;20178;-69
2024/02/02 06:46:31;;;;;;;1.20;1.00;;;21.10;53.80;;;;;;5070418;28;20515;-70
2024/02/02 06:48:57;;;;;;;1.57;0.90;;;21.20;53.90;;;;;;5070073;28;20178;-69
2024/02/02 06:51:23;;;;;;;1.40;0.87;;;21.20;53.80;;;;;;5069905;28;20194;-68
2024/02/02 06:53:51;;;;;;;1.37;1.20;;;21.20;53.80;;;;;;5070049;28;20174;-70
2024/02/02 06:56:34;;;;;;;1.03;0.93;;;21.20;53.80;;;;;;5069936;28;20227;-70
2024/02/02 06:59:00;;;;;;;1.40;1.10;;;21.20;53.80;;;;;;5069732;28;20440;-70
2024/02/02 07:01:26;;;;;;;1.20;1.03;;;21.20;53.80;;;;;;5069701;28;20437;-70
2024/02/02 07:03:52;;;;;;;1.43;1.20;;;21.20;53.70;;;;;;5069889;28;20166;-69
2024/02/02 07:06:18;;;;;;;1.50;1.17;;;21.30;53.80;;;;;;5070321;28;20935;-70
2024/02/02 07:08:43;;;;;;;1.30;0.90;;;21.30;53.80;;;;;;5070084;28;20224;-70
2024/02/02 07:11:12;;;;;;;1.97;1.40;;;21.30;53.80;;;;;;5051699;28;20198;-70
2024/02/02 07:13:49;;;;;;;1.30;1.20;;;21.30;53.80;;;;;;5069766;28;20269;-69
2024/02/02 07:16:26;;;;;;;1.50;1.00;;;21.30;53.80;;;;;;5069726;28;20428;-69
2024/02/02 07:18:52;;;;;;;1.47;1.10;;;21.30;53.80;;;;;;5069966;28;20470;-70
2024/02/02 07:21:18;;;;;;;1.10;0.90;;;21.30;53.90;;;;;;5069388;28;20890;-69
2024/02/02 07:23:44;;;;;;;1.73;1.30;;;21.30;53.70;;;;;;5069709;28;20174;-70
2024/02/02 07:26:24;;;;;;;1.80;1.10;;;21.30;53.70;;;;;;5069633;28;20179;-69
2024/02/02 07:28:50;;;;;;;1.47;1.10;;;21.30;53.70;;;;;;5069653;28;20786;-70
2024/02/02 07:31:35;;;;;;;1.27;1.17;;;21.30;53.70;;;;;;5069604;28;20436;-69
2024/02/02 07:34:42;;;;;;;1.33;1.07;;;21.30;53.70;;;;;;5069630;28;20154;-69
2024/02/02 07:37:10;;;;;;;1.30;1.00;;;21.30;53.70;;;;;;5052511;28;20786;-69
2024/02/02 07:39:36;;;;;;;1.50;1.40;;;21.30;53.70;;;;;;5073204;28;21000;-69
2024/02/02 07:42:03;;;;;;;1.87;1.37;;;21.30;53.70;;;;;;5073553;28;20435;-70
2024/02/02 07:44:28;;;;;;;1.93;1.37;;;21.30;53.70;;;;;;5073155;28;20170;-68
2024/02/02 07:46:54;;;;;;;1.70;1.27;;;21.30;53.70;;;;;;5073120;28;20409;-69
2024/02/02 07:49:20;;;;;;;1.90;1.30;;;21.30;53.70;;;;;;5073137;28;20174;-69
2024/02/02 07:51:45;;;;;;;1.90;1.40;;;21.40;53.70;;;;;;5072728;28;20745;-70
2024/02/02 07:54:12;;;;;;;3.40;1.80;;;21.30;53.60;;;;;;5072955;28;20170;-70
2024/02/02 07:56:38;;;;;;;3.10;1.50;;;21.30;53.60;;;;;;5072968;28;20520;-68
2024/02/02 07:59:04;;;;;;;1.80;1.50;;;21.40;53.70;;;;;;5072738;28;20458;-69
2024/02/02 08:01:33;;;;;;;2.00;1.63;;;21.40;53.70;;;;;;5072910;28;20244;-69
2024/02/02 08:03:58;;;;;;;2.37;1.40;;;21.30;53.60;;;;;;5072811;28;20200;-69
2024/02/02 08:06:25;;;;;;;3.03;2.27;;;21.40;53.70;;;;;;5072744;28;20499;-69
2024/02/02 08:08:50;;;;;;;5.87;1.60;;;21.40;53.70;;;;;;5072782;28;20174;-69
2024/02/02 08:11:16;;;;;;;1.90;1.70;;;21.40;53.70;;;;;;5072565;28;20539;-70
2024/02/02 08:13:42;;;;;;;3.13;2.17;;;21.40;53.70;;;;;;5072672;28;20552;-68
2024/02/02 08:16:08;;;;;;;1.90;1.47;;;21.40;53.60;;;;;;5072571;28;20182;-70
2024/02/02 08:18:34;;;;;;;2.40;1.60;;;21.40;53.60;;;;;;5054410;28;20884;-68
2024/02/02 08:21:02;;;;;;;2.97;1.50;;;21.40;53.70;;;;;;5072390;28;20420;-68
2024/02/02 08:23:28;;;;;;;3.17;1.60;;;21.40;53.60;;;;;;5072630;28;20251;-69
2024/02/02 08:25:53;;;;;;;2.00;1.80;;;21.40;53.60;;;;;;5054376;28;20503;-69
2024/02/02 08:28:19;;;;;;;2.63;1.80;;;21.40;53.60;;;;;;5072652;28;20285;-70
2024/02/02 08:30:45;;;;;;;2.40;1.63;;;21.40;53.60;;;;;;5072257;28;20194;-70
2024/02/02 08:33:12;;;;;;;3.37;1.90;;;21.40;53.60;;;;;;5072318;28;20201;-69
2024/02/02 08:35:38;;;;;;;4.33;1.53;;;21.40;53.60;;;;;;5072889;28;20412;-69
2024/02/02 08:38:07;;;;;;;2.60;1.63;;;21.40;53.60;;;;;;5072161;28;20416;-70
2024/02/02 08:40:41;;;;;;;5.17;2.23;;;21.40;53.60;;;;;;5072194;28;20190;-69
2024/02/02 08:43:20;;;;;;;2.80;1.93;;;21.40;53.60;;;;;;5072379;28;20385;-70
2024/02/02 08:46:21;;;;;;;3.20;1.93;;;21.40;53.60;;;;;;5072063;28;20583;-69
2024/02/02 08:48:49;;;;;;;1.90;1.40;;;21.40;53.60;;;;;;5018406;28;20417;-69
2024/02/02 08:51:18;;;;;;;2.27;1.40;;;21.40;53.70;;;;;;5071865;28;20571;-69
2024/02/02 08:53:43;;;;;;;4.10;1.77;;;21.40;53.70;;;;;;5071834;28;20417;-69
2024/02/02 08:56:12;;;;;;;2.67;1.80;;;21.40;53.70;;;;;;5071899;28;20934;-69
2024/02/02 08:58:37;;;;;;;3.53;1.60;;;21.40;53.70;;;;;;5071704;28;20207;-69
2024/02/02 09:01:04;;;;;;;2.13;1.67;;;21.40;53.70;;;;;;5071521;28;20427;-68
2024/02/02 09:03:49;;;;;;;4.13;1.60;;;21.40;53.70;;;;;;5071675;28;20501;-69
2024/02/02 09:06:34;;;;;;;2.83;2.00;;;21.40;53.70;;;;;;5071662;28;20442;-69
2024/02/02 09:09:05;;;;;;;2.03;1.83;;;21.40;53.70;;;;;;5026680;28;20421;-70
2024/02/02 09:11:31;;;;;;;5.27;1.70;;;21.40;53.70;;;;;;5071480;28;20468;-68
2024/02/02 09:14:01;;;;;;;3.10;1.90;;;21.40;53.70;;;;;;5071444;28;20509;-69
2024/02/02 09:16:41;;;;;;;3.07;1.70;;;21.40;53.70;;;;;;5036707;28;20206;-69
2024/02/02 09:19:17;;;;;;;3.83;1.80;;;21.40;53.70;;;;;;5071251;28;20444;-69
2024/02/02 09:21:42;;;;;;;4.73;2.00;;;21.40;53.70;;;;;;5071349;28;20919;-69
2024/02/02 09:24:37;;;;;;;2.00;1.70;;;21.40;53.70;;;;;;5071241;28;20411;-70
2024/02/02 09:27:03;;;;;;;2.17;1.57;;;21.40;53.70;;;;;;5060069;28;20183;-69
2024/02/02 09:29:30;;;;;;;2.30;1.50;;;21.40;53.70;;;;;;5071021;28;20832;-69
2024/02/02 09:31:55;;;;;;;2.23;1.77;;;21.40;53.70;;;;;;5071165;28;20962;-69
2024/02/02 09:34:26;;;;;;;5.70;2.00;;;21.40;53.70;;;;;;5071152;28;20420;-69
2024/02/02 09:36:53;;;;;;;2.20;1.57;;;21.40;53.70;;;;;;5071112;28;20171;-70
2024/02/02 09:39:51;;;;;;;2.10;1.73;;;21.40;53.70;;;;;;5070956;28;20456;-70
2024/02/02 09:42:25;;;;;;;1.97;1.70;;;21.40;53.80;;;;;;5070872;28;20408;-69
2024/02/02 09:45:03;;;;;;;3.17;2.10;;;21.40;53.80;;;;;;5070758;28;20404;-69
2024/02/02 09:48:09;;;;;;;3.57;1.70;;;21.40;53.80;;;;;;5070861;28;20895;-70
2024/02/02 09:50:54;;;;;;;2.80;1.60;;;21.40;53.80;;;;;;5015435;28;20467;-70
2024/02/02 09:53:49;;;;;;;2.47;1.73;;;21.40;53.80;;;;;;5088131;28;20414;-69
2024/02/02 09:56:24;;;;;;;3.13;2.00;;;21.40;53.80;;;;;;5082073;28;21071;-70
2024/02/02 09:58:56;;;;;;;2.40;1.90;;;21.40;53.80;;;;;;5090755;28;20462;-70
2024/02/02 10:01:32;;;;;;;1.83;1.20;;;21.40;53.90;;;;;;5089641;28;20461;-70
2024/02/02 10:04:12;;;;;;;2.30;1.60;;;21.40;53.90;;;;;;5090719;28;20460;-69
2024/02/02 10:07:16;;;;;;;3.40;1.70;;;21.30;53.80;;;;;;5090609;28;20427;-69
2024/02/02 10:09:47;;;;;;;2.67;1.50;;;21.40;53.80;;;;;;5090509;28;20419;-69
2024/02/02 10:12:41;;;;;;;2.33;1.60;;;21.30;53.80;;;;;;5090498;28;20392;-70
2024/02/02 10:15:35;;;;;;;4.30;1.70;;;21.40;53.90;;;;;;5076640;28;21282;-70
2024/02/02 10:18:15;;;;;;;2.10;1.80;;;21.40;53.90;;;;;;5090380;28;20404;-70
2024/02/02 10:20:52;;;;;;;3.67;1.47;;;21.40;53.90;;;;;;5090329;28;20523;-71
2024/02/02 10:23:23;;;;;;;2.70;1.77;;;21.40;53.90;;;;;;5090285;28;20398;-70
2024/02/02 10:25:58;;;;;;;3.40;1.50;;;21.30;53.80;;;;;;5090345;28;20392;-69
2024/02/02 10:28:51;;;;;;;3.60;1.80;;;21.40;53.90;;;;;;5090264;28;20476;-69
2024/02/02 10:31:54;;;;;;;3.50;1.63;;;21.40;54.00;;;;;;5090171;28;20427;-69
2024/02/02 10:34:43;;;;;;;4.93;1.57;;;21.40;54.00;;;;;;5090168;28;21272;-70
2024/02/02 10:37:31;;;;;;;5.13;1.60;;;21.30;53.90;;;;;;5090180;28;20400;-69
2024/02/02 10:39:56;;;;;;;3.03;1.63;;;21.40;54.00;;;;;;5089965;28;20454;-69
2024/02/02 10:42:40;;;;;;;8.70;2.30;;;21.30;54.00;;;;;;5090229;28;20408;-69
2024/02/02 10:45:29;;;;;;;2.70;1.50;;;21.30;54.00;;;;;;5090161;28;20193;-69
2024/02/02 10:48:07;;;;;;;1.53;1.33;;;21.30;54.10;;;;;;5090064;28;20404;-68
2024/02/02 10:50:57;;;;;;;2.00;1.60;;;21.30;54.10;;;;;;5089978;28;20433;-69
2024/02/02 10:53:54;;;;;;;2.53;1.90;;;21.30;54.10;;;;;;5089935;28;20399;-68
2024/02/02 10:56:57;;;;;;;4.10;1.70;;;21.30;54.10;;;;;;5090166;28;20392;-69
2024/02/02 10:59:38;;;;;;;1.90;1.70;;;21.30;54.10;;;;;;5072407;28;20473;-69
2024/02/02 11:02:34;;;;;;;2.60;1.57;;;21.30;54.10;;;;;;5089870;28;20442;-68
2024/02/02 11:05:09;;;;;;;2.57;1.80;;;21.30;54.10;;;;;;5090157;28;20396;-68
2024/02/02 11:07:50;;;;;;;2.13;1.33;;;21.30;54.10;;;;;;5089882;28;20398;-69
2024/02/02 11:10:20;;;;;;;3.93;1.90;;;21.30;54.10;;;;;;5090062;28;20432;-69
2024/02/02 11:13:12;;;;;;;3.53;1.73;;;21.30;54.10;;;;;;5092313;28;20403;-69
2024/02/02 11:16:03;;;;;;;3.33;2.03;;;21.30;54.10;;;;;;5093864;28;20431;-69
2024/02/02 11:18:55;;;;;;;4.43;1.80;;;21.30;54.10;;;;;;5094020;28;20859;-69
2024/02/02 11:21:44;;;;;;;2.63;1.93;;;21.30;54.10;;;;;;5093632;28;20427;-69
2024/02/02 11:24:31;;;;;;;3.00;1.67;;;21.30;54.20;;;;;;5044458;28;20484;-70
2024/02/02 11:27:13;;;;;;;2.00;1.73;;;21.30;54.20;;;;;;5093517;28;20482;-71
2024/02/02 11:30:05;;;;;;;2.40;1.80;;;21.30;54.20;;;;;;5093479;28;20444;-69
2024/02/02 11:32:31;;;;;;;2.27;1.43;;;21.30;54.70;;;;;;5093874;28;20482;-69
2024/02/02 11:35:14;;;;;;;2.23;1.60;;;21.30;54.20;;;;;;5093493;28;20922;-69
2024/02/02 11:38:02;;;;;;;3.50;1.73;;;21.30;54.20;;;;;;5075166;28;20781;-67
2024/02/02 11:40:29;;;;;;;2.57;1.50;;;21.30;54.20;;;;;;5093281;28;20442;-69
2024/02/02 11:42:57;;;;;;;3.17;1.90;;;21.30;54.20;;;;;;5093536;28;20408;-69
2024/02/02 11:45:28;;;;;;;2.43;1.30;;;21.30;54.20;;;;;;5093226;28;20408;-69
2024/02/02 11:47:55;;;;;;;3.83;1.50;;;21.30;54.10;;;;;;5093546;28;20394;-69
2024/02/02 11:50:25;;;;;;;3.00;2.03;;;21.30;54.10;;;;;;5093138;28;20451;-69
2024/02/02 11:53:08;;;;;;;2.27;1.60;;;21.30;54.10;;;;;;5093118;28;20416;-69
2024/02/02 11:55:40;;;;;;;2.77;1.50;;;21.30;54.10;;;;;;5093061;28;20892;-68
2024/02/02 11:58:09;;;;;;;3.27;1.60;;;21.30;54.10;;;;;;5093018;28;20882;-70
2024/02/02 12:00:53;;;;;;;4.60;1.60;;;21.30;54.10;;;;;;5075080;28;20783;-69
2024/02/02 12:03:37;;;;;;;2.17;1.83;;;21.30;54.10;;;;;;5093006;28;20392;-69
2024/02/02 12:06:16;;;;;;;1.80;1.60;;;21.30;54.10;;;;;;5093113;28;20474;-70
2024/02/02 12:08:48;;;;;;;2.27;1.97;;;21.30;54.10;;;;;;5093114;28;20828;-70
2024/02/02 12:11:14;;;;;;;1.97;1.40;;;21.30;54.10;;;;;;5092794;28;20463;-68
2024/02/02 12:13:44;;;;;;;5.47;1.77;;;21.30;54.10;;;;;;5092812;28;20411;-68
2024/02/02 12:16:10;;;;;;;1.50;1.30;;;21.30;54.10;;;;;;5092665;28;20512;-68
2024/02/02 12:18:39;;;;;;;2.87;1.77;;;21.30;54.10;;;;;;5092777;28;20455;-68
2024/02/02 12:21:12;;;;;;;3.00;1.70;;;21.30;54.00;;;;;;5092527;28;20436;-69
2024/02/02 12:23:38;;;;;;;1.93;1.40;;;21.30;54.00;;;;;;5091454;28;20524;-68
2024/02/02 12:26:06;;;;;;;2.67;1.97;;;21.30;54.00;;;;;;5092236;28;20433;-69
2024/02/02 12:28:32;;;;;;;3.03;1.90;;;21.30;54.00;;;;;;5092410;28;20656;-68
2024/02/02 12:30:58;;;;;;;4.27;1.90;;;21.30;54.00;;;;;;5092360;28;20434;-68
2024/02/02 12:33:24;;;;;;;3.40;2.10;;;21.30;54.00;;;;;;5092435;28;20423;-68
2024/02/02 12:35:49;;;;;;;4.37;2.30;;;21.30;54.00;;;;;;5092332;28;20280;-69
2024/02/02 12:38:24;;;;;;;6.20;2.33;;;21.30;54.00;;;;;;5092202;28;20260;-68
2024/02/02 12:40:50;;;;;;;2.70;1.93;;;21.30;54.00;;;;;;5092126;28;20200;-69
2024/02/02 12:43:25;;;;;;;2.90;2.20;;;21.30;54.00;;;;;;5091999;28;20407;-70
2024/02/02 12:45:53;;;;;;;3.50;2.07;;;21.30;54.00;;;;;;5092090;28;20249;-68
2024/02/02 12:48:19;;;;;;;5.93;2.77;;;21.30;54.00;;;;;;5091954;28;20518;-69
2024/02/02 12:50:48;;;;;;;3.87;2.90;;;21.30;54.00;;;;;;5091811;28;20447;-68
2024/02/02 12:53:13;;;;;;;4.97;2.73;;;21.30;54.00;;;;;;5091977;28;20414;-71
2024/02/02 12:55:39;;;;;;;4.87;2.17;;;21.30;54.00;;;;;;5091948;28;20411;-70
2024/02/02 12:58:05;;;;;;;5.93;2.30;;;21.30;54.00;;;;;;5091844;28;20675;-69
2024/02/02 13:00:31;;;;;;;4.90;2.27;;;21.30;54.00;;;;;;5091711;28;20186;-69